sensor_id;sensor_type;location;lat;lon;timestamp;pressure;altitude;pressure_sealevel;temperature;humidity
3590;BME280;1809;48.470;9.226;2023-06-26T00:00:23;-16767.69;;;21.53;100.00
3590;BME280;1809;48.470;9.226;2023-06-26T00:02:48;-16768.25;;;21.55;100.00
3590;BME280;1809;48.470;9.226;2023-06-26T00:05:13;-16766.56;;;21.49;100.00
3590;BME280;1809;48.470;9.226;2023-06-26T00:07:39;-16764.63;;;21.41;100.00
3590;BME280;1809;48.470;9.226;2023-06-26T00:10:05;-16762.94;;;21.35;100.00
3590;BME280;1809;48.470;9.226;2023-06-26T00:12:31;-16761.00;;;21.28;100.00
3590;BME280;1809;48.470;9.226;2023-06-26T00:14:57;-16757.91;;;21.17;100.00
3590;BME280;1809;48.470;9.226;2023-06-26T00:17:22;-16754.84;;;21.06;100.00
3590;BME280;1809;48.470;9.226;2023-06-26T00:19:49;-16755.25;;;21.08;100.00
3590;BME280;1809;48.470;9.226;2023-06-26T00:22:14;-16751.50;;;20.94;100.00
3590;BME280;1809;48.470;9.226;2023-06-26T00:24:40;-16745.75;;;20.73;100.00
3590;BME280;1809;48.470;9.226;2023-06-26T00:27:05;-16743.25;;;20.64;100.00
3590;BME280;1809;48.470;9.226;2023-06-26T00:29:31;-16740.03;;;20.53;100.00
3590;BME280;1809;48.470;9.226;2023-06-26T00:31:56;-16738.34;;;20.47;100.00
3590;BME280;1809;48.470;9.226;2023-06-26T00:34:21;-16735.41;;;20.36;100.00
3590;BME280;1809;48.470;9.226;2023-06-26T00:36:47;-16733.03;;;20.27;100.00
3590;BME280;1809;48.470;9.226;2023-06-26T00:39:12;-16731.63;;;20.22;100.00
3590;BME280;1809;48.470;9.226;2023-06-26T00:41:37;-16729.81;;;20.16;100.00
3590;BME280;1809;48.470;9.226;2023-06-26T00:44:06;-16728.28;;;20.10;100.00
3590;BME280;1809;48.470;9.226;2023-06-26T00:46:32;-16729.13;;;20.13;100.00
3590;BME280;1809;48.470;9.226;2023-06-26T00:49:02;-16726.03;;;20.02;100.00
3590;BME280;1809;48.470;9.226;2023-06-26T00:51:29;-16725.34;;;20.00;100.00
3590;BME280;1809;48.470;9.226;2023-06-26T00:53:55;-16724.38;;;19.96;100.00
3590;BME280;1809;48.470;9.226;2023-06-26T00:56:21;-16721.84;;;19.87;100.00
3590;BME280;1809;48.470;9.226;2023-06-26T00:58:47;-16718.91;;;19.76;100.00
3590;BME280;1809;48.470;9.226;2023-06-26T01:01:13;-16716.41;;;19.67;100.00
3590;BME280;1809;48.470;9.226;2023-06-26T01:03:45;-16711.94;;;19.51;100.00
3590;BME280;1809;48.470;9.226;2023-06-26T01:06:12;-16709.56;;;19.43;100.00
3590;BME280;1809;48.470;9.226;2023-06-26T01:08:39;-16708.16;;;19.38;100.00
3590;BME280;1809;48.470;9.226;2023-06-26T01:11:06;-16707.03;;;19.33;100.00
3590;BME280;1809;48.470;9.226;2023-06-26T01:13:32;-16704.66;;;19.25;100.00
3590;BME280;1809;48.470;9.226;2023-06-26T01:15:58;-16704.66;;;19.25;100.00
3590;BME280;1809;48.470;9.226;2023-06-26T01:18:25;-16702.00;;;19.15;100.00
3590;BME280;1809;48.470;9.226;2023-06-26T01:20:51;-16699.47;;;19.06;100.00
3590;BME280;1809;48.470;9.226;2023-06-26T01:23:30;-16697.78;;;19.00;100.00
3590;BME280;1809;48.470;9.226;2023-06-26T01:28:31;-16696.97;;;18.97;100.00
3590;BME280;1809;48.470;9.226;2023-06-26T01:30:59;-16697.78;;;19.00;100.00
3590;BME280;1809;48.470;9.226;2023-06-26T01:33:24;-16696.13;;;18.94;100.00
3590;BME280;1809;48.470;9.226;2023-06-26T01:35:49;-16698.91;;;19.04;100.00
3590;BME280;1809;48.470;9.226;2023-06-26T01:38:19;-16696.69;;;18.96;100.00
3590;BME280;1809;48.470;9.226;2023-06-26T01:40:45;-16693.59;;;18.85;100.00
3590;BME280;1809;48.470;9.226;2023-06-26T01:43:36;-16694.44;;;18.88;100.00
3590;BME280;1809;48.470;9.226;2023-06-26T01:46:06;-16694.16;;;18.87;100.00
3590;BME280;1809;48.470;9.226;2023-06-26T01:48:42;-16696.53;;;18.96;100.00
3590;BME280;1809;48.470;9.226;2023-06-26T01:51:13;-16695.97;;;18.94;100.00
3590;BME280;1809;48.470;9.226;2023-06-26T01:53:41;-16693.19;;;18.84;100.00
3590;BME280;1809;48.470;9.226;2023-06-26T01:56:13;-16691.94;;;18.79;100.00
3590;BME280;1809;48.470;9.226;2023-06-26T01:58:43;-16688.28;;;18.66;100.00
3590;BME280;1809;48.470;9.226;2023-06-26T02:01:10;-16690.09;;;18.72;100.00
3590;BME280;1809;48.470;9.226;2023-06-26T02:03:36;-16688.00;;;18.65;100.00
3590;BME280;1809;48.470;9.226;2023-06-26T02:06:01;-16688.00;;;18.65;100.00
3590;BME280;1809;48.470;9.226;2023-06-26T02:08:27;-16687.03;;;18.61;100.00
3590;BME280;1809;48.470;9.226;2023-06-26T02:10:52;-16685.78;;;18.57;100.00
3590;BME280;1809;48.470;9.226;2023-06-26T02:13:18;-16684.66;;;18.53;100.00
3590;BME280;1809;48.470;9.226;2023-06-26T02:15:43;-16685.50;;;18.56;100.00
3590;BME280;1809;48.470;9.226;2023-06-26T02:18:08;-16687.16;;;18.62;100.00
3590;BME280;1809;48.470;9.226;2023-06-26T02:20:34;-16685.78;;;18.57;100.00
3590;BME280;1809;48.470;9.226;2023-06-26T02:22:59;-16685.50;;;18.56;100.00
3590;BME280;1809;48.470;9.226;2023-06-26T02:25:24;-16683.25;;;18.48;100.00
3590;BME280;1809;48.470;9.226;2023-06-26T02:27:50;-16683.53;;;18.49;100.00
3590;BME280;1809;48.470;9.226;2023-06-26T02:30:15;-16679.59;;;18.35;100.00
3590;BME280;1809;48.470;9.226;2023-06-26T02:32:40;-16680.72;;;18.39;100.00
3590;BME280;1809;48.470;9.226;2023-06-26T02:35:06;-16680.16;;;18.37;100.00
3590;BME280;1809;48.470;9.226;2023-06-26T02:37:32;-16678.34;;;18.30;100.00
3590;BME280;1809;48.470;9.226;2023-06-26T02:39:57;-16677.66;;;18.27;100.00
3590;BME280;1809;48.470;9.226;2023-06-26T02:42:22;-16673.44;;;18.12;100.00
3590;BME280;1809;48.470;9.226;2023-06-26T02:44:48;-16671.06;;;18.04;100.00
3590;BME280;1809;48.470;9.226;2023-06-26T02:47:13;-16669.66;;;17.99;100.00
3590;BME280;1809;48.470;9.226;2023-06-26T02:49:38;-16669.25;;;17.97;100.00
3590;BME280;1809;48.470;9.226;2023-06-26T02:52:04;-16668.28;;;17.94;100.00
3590;BME280;1809;48.470;9.226;2023-06-26T02:54:29;-16666.44;;;17.87;100.00
3590;BME280;1809;48.470;9.226;2023-06-26T02:56:55;-16664.06;;;17.79;100.00
3590;BME280;1809;48.470;9.226;2023-06-26T02:59:20;-16663.09;;;17.75;100.00
3590;BME280;1809;48.470;9.226;2023-06-26T03:01:45;-16661.13;;;17.68;100.00
3590;BME280;1809;48.470;9.226;2023-06-26T03:04:11;-16657.78;;;17.56;100.00
3590;BME280;1809;48.470;9.226;2023-06-26T03:06:36;-16655.81;;;17.49;100.00
3590;BME280;1809;48.470;9.226;2023-06-26T03:09:02;-16654.97;;;17.46;100.00
3590;BME280;1809;48.470;9.226;2023-06-26T03:11:30;-16654.97;;;17.46;100.00
3590;BME280;1809;48.470;9.226;2023-06-26T03:13:55;-16654.69;;;17.45;100.00
3590;BME280;1809;48.470;9.226;2023-06-26T03:16:21;-16654.41;;;17.44;100.00
3590;BME280;1809;48.470;9.226;2023-06-26T03:18:46;-16653.84;;;17.42;100.00
3590;BME280;1809;48.470;9.226;2023-06-26T03:21:11;-16653.00;;;17.39;100.00
3590;BME280;1809;48.470;9.226;2023-06-26T03:23:37;-16653.00;;;17.39;100.00
3590;BME280;1809;48.470;9.226;2023-06-26T03:26:02;-16651.34;;;17.33;100.00
3590;BME280;1809;48.470;9.226;2023-06-26T03:28:27;-16652.72;;;17.38;100.00
3590;BME280;1809;48.470;9.226;2023-06-26T03:30:53;-16652.31;;;17.36;100.00
3590;BME280;1809;48.470;9.226;2023-06-26T03:33:18;-16653.56;;;17.41;100.00
3590;BME280;1809;48.470;9.226;2023-06-26T03:35:43;-16655.13;;;17.46;100.00
3590;BME280;1809;48.470;9.226;2023-06-26T03:38:09;-16655.25;;;17.47;100.00
3590;BME280;1809;48.470;9.226;2023-06-26T03:40:34;-16654.69;;;17.45;100.00
3590;BME280;1809;48.470;9.226;2023-06-26T03:43:00;-16656.66;;;17.52;100.00
3590;BME280;1809;48.470;9.226;2023-06-26T03:45:26;-16655.13;;;17.46;100.00
3590;BME280;1809;48.470;9.226;2023-06-26T03:47:51;-16656.78;;;17.52;100.00
3590;BME280;1809;48.470;9.226;2023-06-26T03:50:17;-16660.00;;;17.64;100.00
3590;BME280;1809;48.470;9.226;2023-06-26T03:52:42;-16659.47;;;17.62;100.00
3590;BME280;1809;48.470;9.226;2023-06-26T03:55:08;-16662.81;;;17.74;100.00
3590;BME280;1809;48.470;9.226;2023-06-26T03:57:33;-16666.88;;;17.89;100.00
3590;BME280;1809;48.470;9.226;2023-06-26T03:59:58;-16675.41;;;18.19;100.00
3590;BME280;1809;48.470;9.226;2023-06-26T04:02:24;-16684.94;;;18.54;100.00
3590;BME280;1809;48.470;9.226;2023-06-26T04:04:49;-16707.31;;;19.34;100.00
3590;BME280;1809;48.470;9.226;2023-06-26T04:07:14;-16730.53;;;20.18;100.00
3590;BME280;1809;48.470;9.226;2023-06-26T04:09:41;-16750.50;;;20.90;100.00
3590;BME280;1809;48.470;9.226;2023-06-26T04:12:06;-16762.94;;;21.35;100.00
3590;BME280;1809;48.470;9.226;2023-06-26T04:14:32;-16763.22;;;21.36;100.00
3590;BME280;1809;48.470;9.226;2023-06-26T04:16:57;-16781.38;;;22.02;100.00
3590;BME280;1809;48.470;9.226;2023-06-26T04:19:23;-16803.59;;;22.82;100.00
3590;BME280;1809;48.470;9.226;2023-06-26T04:21:48;-16823.81;;;23.55;100.00
3590;BME280;1809;48.470;9.226;2023-06-26T04:24:14;-16837.91;;;24.06;100.00
3590;BME280;1809;48.470;9.226;2023-06-26T04:26:39;-16843.63;;;24.27;100.00
3590;BME280;1809;48.470;9.226;2023-06-26T04:29:06;-16859.41;;;24.84;100.00
3590;BME280;1809;48.470;9.226;2023-06-26T04:31:32;-16873.06;;;25.34;100.00
3590;BME280;1809;48.470;9.226;2023-06-26T04:33:57;-16875.13;;;25.41;100.00
3590;BME280;1809;48.470;9.226;2023-06-26T04:36:25;-16873.19;;;25.34;100.00
3590;BME280;1809;48.470;9.226;2023-06-26T04:38:54;-16876.81;;;25.47;100.00
3590;BME280;1809;48.470;9.226;2023-06-26T04:41:19;-16891.31;;;26.00;100.00
3590;BME280;1809;48.470;9.226;2023-06-26T04:43:45;-16907.72;;;26.59;100.00
3590;BME280;1809;48.470;9.226;2023-06-26T04:46:10;-16926.13;;;27.26;100.00
3590;BME280;1809;48.470;9.226;2023-06-26T04:48:35;-16939.19;;;27.73;100.00
3590;BME280;1809;48.470;9.226;2023-06-26T04:51:01;-16954.91;;;28.30;100.00
3590;BME280;1809;48.470;9.226;2023-06-26T04:53:26;-16958.53;;;28.44;100.00
3590;BME280;1809;48.470;9.226;2023-06-26T04:55:52;-16967.56;;;28.76;100.00
3590;BME280;1809;48.470;9.226;2023-06-26T04:58:18;-16981.34;;;29.26;100.00
3590;BME280;1809;48.470;9.226;2023-06-26T05:00:43;-16976.31;;;29.08;100.00
3590;BME280;1809;48.470;9.226;2023-06-26T05:03:13;-16993.44;;;29.70;100.00
3590;BME280;1809;48.470;9.226;2023-06-26T05:05:38;-16979.81;;;29.21;100.00
3590;BME280;1809;48.470;9.226;2023-06-26T05:08:18;-16992.59;;;29.67;100.00
3590;BME280;1809;48.470;9.226;2023-06-26T05:10:44;-17016.50;;;30.54;100.00
3590;BME280;1809;48.470;9.226;2023-06-26T05:13:10;-16993.16;;;29.69;100.00
3590;BME280;1809;48.470;9.226;2023-06-26T05:15:36;-17025.94;;;30.88;100.00
3590;BME280;1809;48.470;9.226;2023-06-26T05:18:01;-17041.47;;;31.45;100.00
3590;BME280;1809;48.470;9.226;2023-06-26T05:20:27;-17047.72;;;31.68;100.00
3590;BME280;1809;48.470;9.226;2023-06-26T05:22:52;-17067.00;;;32.38;98.23
3590;BME280;1809;48.470;9.226;2023-06-26T05:25:21;-17078.66;;;32.80;93.21
3590;BME280;1809;48.470;9.226;2023-06-26T05:27:48;-17084.19;;;33.00;95.33
3590;BME280;1809;48.470;9.226;2023-06-26T05:30:13;-17093.06;;;33.33;92.69
3590;BME280;1809;48.470;9.226;2023-06-26T05:32:40;-17081.69;;;32.91;91.33
3590;BME280;1809;48.470;9.226;2023-06-26T05:35:06;-17070.75;;;32.52;96.53
3590;BME280;1809;48.470;9.226;2023-06-26T05:37:33;-17102.63;;;33.68;84.71
3590;BME280;1809;48.470;9.226;2023-06-26T05:39:59;-17098.88;;;33.54;91.45
3590;BME280;1809;48.470;9.226;2023-06-26T05:42:25;-17109.97;;;33.94;90.19
3590;BME280;1809;48.470;9.226;2023-06-26T05:44:50;-17109.41;;;33.92;90.78
3590;BME280;1809;48.470;9.226;2023-06-26T05:47:16;-17122.16;;;34.39;87.35
3590;BME280;1809;48.470;9.226;2023-06-26T05:49:41;-17114.53;;;34.11;89.38
3590;BME280;1809;48.470;9.226;2023-06-26T05:52:07;-17095.56;;;33.42;94.21
3590;BME280;1809;48.470;9.226;2023-06-26T05:54:33;-17115.22;;;34.14;90.19
3590;BME280;1809;48.470;9.226;2023-06-26T05:56:58;-17121.59;;;34.37;84.62
3590;BME280;1809;48.470;9.226;2023-06-26T05:59:27;-17132.53;;;34.77;81.74
3590;BME280;1809;48.470;9.226;2023-06-26T06:01:55;-17140.16;;;35.04;79.62
3590;BME280;1809;48.470;9.226;2023-06-26T06:04:20;-17110.53;;;33.96;91.36
3590;BME280;1809;48.470;9.226;2023-06-26T06:06:46;-17113.56;;;34.08;84.43
3590;BME280;1809;48.470;9.226;2023-06-26T06:09:11;-17071.72;;;32.55;94.39
3590;BME280;1809;48.470;9.226;2023-06-26T06:11:37;-17064.50;;;32.29;98.98
3590;BME280;1809;48.470;9.226;2023-06-26T06:14:02;-17065.06;;;32.31;100.00
3590;BME280;1809;48.470;9.226;2023-06-26T06:16:28;-17057.84;;;32.05;100.00
3590;BME280;1809;48.470;9.226;2023-06-26T06:18:54;-17034.25;;;31.19;100.00
3590;BME280;1809;48.470;9.226;2023-06-26T06:21:19;-17028.00;;;30.96;100.00
3590;BME280;1809;48.470;9.226;2023-06-26T06:23:45;-17052.56;;;31.85;100.00
3590;BME280;1809;48.470;9.226;2023-06-26T06:26:10;-17063.41;;;32.25;100.00
3590;BME280;1809;48.470;9.226;2023-06-26T06:28:36;-17102.91;;;33.69;92.10
3590;BME280;1809;48.470;9.226;2023-06-26T06:31:01;-17139.59;;;35.02;81.52
3590;BME280;1809;48.470;9.226;2023-06-26T06:33:26;-17116.47;;;34.18;85.66
3590;BME280;1809;48.470;9.226;2023-06-26T06:35:52;-17118.56;;;34.26;82.98
3590;BME280;1809;48.470;9.226;2023-06-26T06:38:17;-17119.66;;;34.30;82.87
3590;BME280;1809;48.470;9.226;2023-06-26T06:40:42;-17090.56;;;33.24;91.04
3590;BME280;1809;48.470;9.226;2023-06-26T06:43:08;-17107.06;;;33.84;90.02
3590;BME280;1809;48.470;9.226;2023-06-26T06:45:33;-17126.03;;;34.53;87.45
3590;BME280;1809;48.470;9.226;2023-06-26T06:47:58;-17163.13;;;35.88;77.90
3590;BME280;1809;48.470;9.226;2023-06-26T06:50:24;-17133.09;;;34.79;81.52
3590;BME280;1809;48.470;9.226;2023-06-26T06:52:49;-17158.13;;;35.70;79.49
3590;BME280;1809;48.470;9.226;2023-06-26T06:55:14;-17164.50;;;35.93;69.63
3590;BME280;1809;48.470;9.226;2023-06-26T06:57:40;-17150.09;;;35.41;77.33
3590;BME280;1809;48.470;9.226;2023-06-26T07:00:07;-17174.19;;;36.29;68.01
3590;BME280;1809;48.470;9.226;2023-06-26T07:02:40;-17162.28;;;35.85;69.50
3590;BME280;1809;48.470;9.226;2023-06-26T07:05:06;-17144.03;;;35.19;74.57
3590;BME280;1809;48.470;9.226;2023-06-26T07:07:33;-17131.84;;;34.74;79.79
3590;BME280;1809;48.470;9.226;2023-06-26T07:10:04;-17134.19;;;34.83;84.21
3590;BME280;1809;48.470;9.226;2023-06-26T07:12:30;-17150.94;;;35.44;75.95
3590;BME280;1809;48.470;9.226;2023-06-26T07:14:56;-17186.06;;;36.72;67.25
3590;BME280;1809;48.470;9.226;2023-06-26T07:17:22;-17162.84;;;35.87;69.23
3590;BME280;1809;48.470;9.226;2023-06-26T07:19:48;-17168.91;;;36.09;68.95
3590;BME280;1809;48.470;9.226;2023-06-26T07:22:13;-17185.91;;;36.72;62.59
3590;BME280;1809;48.470;9.226;2023-06-26T07:24:39;-17187.16;;;36.76;61.99
3590;BME280;1809;48.470;9.226;2023-06-26T07:27:04;-17168.09;;;36.06;63.02
3590;BME280;1809;48.470;9.226;2023-06-26T07:29:29;-17147.06;;;35.30;67.63
3590;BME280;1809;48.470;9.226;2023-06-26T07:31:55;-17152.19;;;35.48;68.50
3590;BME280;1809;48.470;9.226;2023-06-26T07:34:20;-17152.75;;;35.50;70.51
3590;BME280;1809;48.470;9.226;2023-06-26T07:36:46;-17153.56;;;35.53;63.99
3590;BME280;1809;48.470;9.226;2023-06-26T07:39:11;-17139.59;;;35.02;70.77
3590;BME280;1809;48.470;9.226;2023-06-26T07:41:36;-17138.22;;;34.97;70.79
3590;BME280;1809;48.470;9.226;2023-06-26T07:44:02;-17145.13;;;35.23;72.00
3590;BME280;1809;48.470;9.226;2023-06-26T07:46:27;-17146.09;;;35.26;70.85
3590;BME280;1809;48.470;9.226;2023-06-26T07:48:53;-17135.16;;;34.86;69.21
3590;BME280;1809;48.470;9.226;2023-06-26T07:51:19;-17131.28;;;34.72;69.58
3590;BME280;1809;48.470;9.226;2023-06-26T07:53:44;-17150.53;;;35.42;71.62
3590;BME280;1809;48.470;9.226;2023-06-26T07:56:10;-17151.06;;;35.44;67.53
3590;BME280;1809;48.470;9.226;2023-06-26T07:58:35;-17150.38;;;35.42;64.56
3590;BME280;1809;48.470;9.226;2023-06-26T08:01:00;-17146.53;;;35.28;68.21
3590;BME280;1809;48.470;9.226;2023-06-26T08:03:26;-17138.06;;;34.97;69.88
3590;BME280;1809;48.470;9.226;2023-06-26T08:05:51;-17128.81;;;34.63;68.46
3590;BME280;1809;48.470;9.226;2023-06-26T08:08:16;-17136.00;;;34.89;68.11
3590;BME280;1809;48.470;9.226;2023-06-26T08:10:42;-17146.25;;;35.27;69.01
3590;BME280;1809;48.470;9.226;2023-06-26T08:13:07;-17122.84;;;34.41;68.32
3590;BME280;1809;48.470;9.226;2023-06-26T08:15:32;-17105.94;;;33.80;69.73
3590;BME280;1809;48.470;9.226;2023-06-26T08:17:58;-17115.38;;;34.14;73.90
3590;BME280;1809;48.470;9.226;2023-06-26T08:20:23;-17098.59;;;33.53;78.34
3590;BME280;1809;48.470;9.226;2023-06-26T08:22:49;-17078.22;;;32.79;81.83
3590;BME280;1809;48.470;9.226;2023-06-26T08:25:16;-17062.84;;;32.23;91.28
3590;BME280;1809;48.470;9.226;2023-06-26T08:27:42;-17046.47;;;31.63;94.96
3590;BME280;1809;48.470;9.226;2023-06-26T08:30:07;-17041.75;;;31.46;100.00
3590;BME280;1809;48.470;9.226;2023-06-26T08:32:33;-17024.25;;;30.82;100.00
3590;BME280;1809;48.470;9.226;2023-06-26T08:34:58;-17027.31;;;30.93;100.00
3590;BME280;1809;48.470;9.226;2023-06-26T08:37:24;-17029.00;;;31.00;100.00
3590;BME280;1809;48.470;9.226;2023-06-26T08:39:49;-17030.78;;;31.06;100.00
3590;BME280;1809;48.470;9.226;2023-06-26T08:42:14;-17032.31;;;31.12;100.00
3590;BME280;1809;48.470;9.226;2023-06-26T08:44:40;-17024.53;;;30.83;100.00
3590;BME280;1809;48.470;9.226;2023-06-26T08:47:05;-17029.00;;;31.00;100.00
3590;BME280;1809;48.470;9.226;2023-06-26T08:50:19;-17030.66;;;31.06;100.00
3590;BME280;1809;48.470;9.226;2023-06-26T08:52:31;-17033.56;;;31.16;100.00
3590;BME280;1809;48.470;9.226;2023-06-26T08:54:59;-17028.16;;;30.97;100.00
3590;BME280;1809;48.470;9.226;2023-06-26T08:57:26;-17028.84;;;30.99;100.00
3590;BME280;1809;48.470;9.226;2023-06-26T08:59:52;-17029.00;;;31.00;100.00
3590;BME280;1809;48.470;9.226;2023-06-26T09:02:17;-17029.13;;;31.00;100.00
3590;BME280;1809;48.470;9.226;2023-06-26T09:04:43;-17033.97;;;31.18;100.00
3590;BME280;1809;48.470;9.226;2023-06-26T09:07:08;-17034.25;;;31.19;100.00
3590;BME280;1809;48.470;9.226;2023-06-26T09:09:34;-17038.84;;;31.35;100.00
3590;BME280;1809;48.470;9.226;2023-06-26T09:12:02;-17034.69;;;31.20;100.00
3590;BME280;1809;48.470;9.226;2023-06-26T09:14:29;-17025.66;;;30.87;100.00
3590;BME280;1809;48.470;9.226;2023-06-26T09:16:55;-17024.81;;;30.84;100.00
3590;BME280;1809;48.470;9.226;2023-06-26T09:19:20;-17030.94;;;31.07;100.00
3590;BME280;1809;48.470;9.226;2023-06-26T09:21:49;-17031.63;;;31.09;100.00
3590;BME280;1809;48.470;9.226;2023-06-26T09:24:16;-17032.59;;;31.13;100.00
3590;BME280;1809;48.470;9.226;2023-06-26T09:26:42;-17037.03;;;31.29;100.00
3590;BME280;1809;48.470;9.226;2023-06-26T09:29:08;-17036.22;;;31.26;100.00
3590;BME280;1809;48.470;9.226;2023-06-26T09:31:36;-17040.91;;;31.43;100.00
3590;BME280;1809;48.470;9.226;2023-06-26T09:34:02;-17044.53;;;31.56;100.00
3590;BME280;1809;48.470;9.226;2023-06-26T09:36:29;-17048.69;;;31.71;100.00
3590;BME280;1809;48.470;9.226;2023-06-26T09:39:04;-17043.41;;;31.52;100.00
3590;BME280;1809;48.470;9.226;2023-06-26T09:41:30;-17042.44;;;31.49;100.00
3590;BME280;1809;48.470;9.226;2023-06-26T09:44:00;-17052.03;;;31.83;100.00
3590;BME280;1809;48.470;9.226;2023-06-26T09:46:27;-17062.84;;;32.23;98.83
3590;BME280;1809;48.470;9.226;2023-06-26T09:49:04;-17064.38;;;32.28;96.40
3590;BME280;1809;48.470;9.226;2023-06-26T09:51:31;-17056.19;;;31.98;96.58
3590;BME280;1809;48.470;9.226;2023-06-26T09:53:57;-17060.06;;;32.13;93.13
3590;BME280;1809;48.470;9.226;2023-06-26T09:56:23;-17063.25;;;32.24;85.80
3590;BME280;1809;48.470;9.226;2023-06-26T09:58:49;-17068.81;;;32.44;89.22
3590;BME280;1809;48.470;9.226;2023-06-26T10:01:14;-17065.34;;;32.32;90.04
3590;BME280;1809;48.470;9.226;2023-06-26T10:03:39;-17060.91;;;32.16;94.17
3590;BME280;1809;48.470;9.226;2023-06-26T10:06:07;-17069.22;;;32.46;92.64
3590;BME280;1809;48.470;9.226;2023-06-26T10:08:34;-17065.75;;;32.33;90.18
3590;BME280;1809;48.470;9.226;2023-06-26T10:11:01;-17070.34;;;32.50;88.83
3590;BME280;1809;48.470;9.226;2023-06-26T10:13:38;-17065.34;;;32.32;91.99
3590;BME280;1809;48.470;9.226;2023-06-26T10:16:07;-17069.91;;;32.48;93.66
3590;BME280;1809;48.470;9.226;2023-06-26T10:18:33;-17069.50;;;32.47;93.72
3590;BME280;1809;48.470;9.226;2023-06-26T10:21:01;-17076.44;;;32.72;91.26
3590;BME280;1809;48.470;9.226;2023-06-26T10:23:30;-17077.25;;;32.75;92.28
3590;BME280;1809;48.470;9.226;2023-06-26T10:25:58;-17074.22;;;32.64;91.62
3590;BME280;1809;48.470;9.226;2023-06-26T10:28:26;-17062.00;;;32.20;91.95
3590;BME280;1809;48.470;9.226;2023-06-26T10:30:54;-17066.16;;;32.35;92.90
3590;BME280;1809;48.470;9.226;2023-06-26T10:33:20;-17073.38;;;32.61;93.09
3590;BME280;1809;48.470;9.226;2023-06-26T10:35:47;-17073.09;;;32.60;94.24
3590;BME280;1809;48.470;9.226;2023-06-26T10:38:12;-17073.38;;;32.61;88.38
3590;BME280;1809;48.470;9.226;2023-06-26T10:40:43;-17079.47;;;32.83;86.71
3590;BME280;1809;48.470;9.226;2023-06-26T10:43:11;-17082.13;;;32.93;81.79
3590;BME280;1809;48.470;9.226;2023-06-26T10:45:37;-17068.94;;;32.45;87.73
3590;BME280;1809;48.470;9.226;2023-06-26T10:48:07;-17071.16;;;32.53;87.44
3590;BME280;1809;48.470;9.226;2023-06-26T10:50:34;-17072.28;;;32.57;84.50
3590;BME280;1809;48.470;9.226;2023-06-26T10:55:59;-17077.69;;;32.77;84.82
3590;BME280;1809;48.470;9.226;2023-06-26T11:01:14;-17077.97;;;32.78;79.19
3590;BME280;1809;48.470;9.226;2023-06-26T11:03:41;-17070.59;;;32.51;84.20
3590;BME280;1809;48.470;9.226;2023-06-26T11:06:11;-17072.28;;;32.57;89.46
3590;BME280;1809;48.470;9.226;2023-06-26T11:11:22;-17068.25;;;32.42;86.66
3590;BME280;1809;48.470;9.226;2023-06-26T11:14:07;-17074.50;;;32.65;88.19
3590;BME280;1809;48.470;9.226;2023-06-26T11:16:34;-17071.16;;;32.53;90.32
3590;BME280;1809;48.470;9.226;2023-06-26T11:19:01;-17067.28;;;32.39;92.01
3590;BME280;1809;48.470;9.226;2023-06-26T11:21:27;-17065.63;;;32.33;94.47
3590;BME280;1809;48.470;9.226;2023-06-26T11:23:53;-17063.41;;;32.25;95.28
3590;BME280;1809;48.470;9.226;2023-06-26T11:26:20;-17057.28;;;32.03;98.62
3590;BME280;1809;48.470;9.226;2023-06-26T11:28:54;-17054.25;;;31.91;100.00
3590;BME280;1809;48.470;9.226;2023-06-26T11:31:24;-17051.75;;;31.82;100.00
3590;BME280;1809;48.470;9.226;2023-06-26T11:33:50;-17052.84;;;31.86;100.00
3590;BME280;1809;48.470;9.226;2023-06-26T11:36:15;-17055.63;;;31.96;100.00
3590;BME280;1809;48.470;9.226;2023-06-26T11:38:40;-17062.56;;;32.22;100.00
3590;BME280;1809;48.470;9.226;2023-06-26T11:41:06;-17068.94;;;32.45;100.00
3590;BME280;1809;48.470;9.226;2023-06-26T11:43:34;-17073.53;;;32.62;100.00
3590;BME280;1809;48.470;9.226;2023-06-26T11:45:59;-17069.91;;;32.48;100.00
3590;BME280;1809;48.470;9.226;2023-06-26T11:48:25;-17069.34;;;32.46;100.00
3590;BME280;1809;48.470;9.226;2023-06-26T11:50:51;-17067.97;;;32.41;100.00
3590;BME280;1809;48.470;9.226;2023-06-26T11:53:17;-17060.75;;;32.15;100.00
3590;BME280;1809;48.470;9.226;2023-06-26T11:55:42;-17061.47;;;32.18;100.00
3590;BME280;1809;48.470;9.226;2023-06-26T11:58:08;-17062.72;;;32.22;100.00
3590;BME280;1809;48.470;9.226;2023-06-26T12:00:33;-17045.50;;;31.60;100.00
3590;BME280;1809;48.470;9.226;2023-06-26T12:02:59;-17039.13;;;31.36;100.00
3590;BME280;1809;48.470;9.226;2023-06-26T12:05:24;-17045.50;;;31.60;100.00
3590;BME280;1809;48.470;9.226;2023-06-26T12:07:50;-17048.69;;;31.71;100.00
3590;BME280;1809;48.470;9.226;2023-06-26T12:10:17;-17053.28;;;31.88;100.00
3590;BME280;1809;48.470;9.226;2023-06-26T12:12:43;-17059.78;;;32.12;100.00
3590;BME280;1809;48.470;9.226;2023-06-26T12:15:15;-17070.34;;;32.50;100.00
3590;BME280;1809;48.470;9.226;2023-06-26T12:17:40;-17070.59;;;32.51;100.00
3590;BME280;1809;48.470;9.226;2023-06-26T12:20:23;-17086.41;;;33.09;100.00
3590;BME280;1809;48.470;9.226;2023-06-26T12:22:50;-17072.97;;;32.60;100.00
3590;BME280;1809;48.470;9.226;2023-06-26T12:25:22;-17058.69;;;32.08;100.00
3590;BME280;1809;48.470;9.226;2023-06-26T12:27:48;-17057.84;;;32.05;100.00
3590;BME280;1809;48.470;9.226;2023-06-26T12:30:13;-17057.56;;;32.04;100.00
3590;BME280;1809;48.470;9.226;2023-06-26T12:32:38;-17053.69;;;31.89;100.00
3590;BME280;1809;48.470;9.226;2023-06-26T12:35:04;-17040.50;;;31.41;100.00
3590;BME280;1809;48.470;9.226;2023-06-26T12:37:36;-17039.81;;;31.39;100.00
3590;BME280;1809;48.470;9.226;2023-06-26T12:40:02;-17033.84;;;31.17;100.00
3590;BME280;1809;48.470;9.226;2023-06-26T12:42:33;-17043.84;;;31.54;100.00
3590;BME280;1809;48.470;9.226;2023-06-26T12:44:58;-17044.94;;;31.58;100.00
3590;BME280;1809;48.470;9.226;2023-06-26T12:47:26;-17050.22;;;31.77;100.00
3590;BME280;1809;48.470;9.226;2023-06-26T12:49:52;-17054.50;;;31.92;100.00
3590;BME280;1809;48.470;9.226;2023-06-26T12:52:18;-17048.13;;;31.69;100.00
3590;BME280;1809;48.470;9.226;2023-06-26T12:54:45;-17046.47;;;31.63;100.00
3590;BME280;1809;48.470;9.226;2023-06-26T12:57:12;-17042.59;;;31.49;100.00
3590;BME280;1809;48.470;9.226;2023-06-26T12:59:39;-17038.84;;;31.35;100.00
3590;BME280;1809;48.470;9.226;2023-06-26T13:02:05;-17038.41;;;31.34;100.00
3590;BME280;1809;48.470;9.226;2023-06-26T13:04:31;-17038.00;;;31.32;100.00
3590;BME280;1809;48.470;9.226;2023-06-26T13:06:57;-17043.41;;;31.52;100.00
3590;BME280;1809;48.470;9.226;2023-06-26T13:09:23;-17058.53;;;32.07;100.00
3590;BME280;1809;48.470;9.226;2023-06-26T13:11:51;-17055.63;;;31.96;100.00